Overview Statistics Trail Chart Weather Telemetry Raw packets
 

This is the latest recevied weather packets stored in our database for station/object VK4CWL-13. If no packets are shown the sender has not sent any weather packets the latest 10 day(s).

<< 94 95 96 97 98 99 100 >>
Time Temp. Humidity Pressure Rain* Wind** Luminosity Snow
1787971008 25° C 39% 1024.3 hPa 0 mm - - -
1787970705 24.44° C 40% 1024.4 hPa 0 mm - - -
1787970403 24.44° C 40% 1024.4 hPa 0 mm - - -
1787970310 24.44° C 41% 1024.5 hPa 0 mm - - -
1787970098 24.44° C 40% 1024.4 hPa 0 mm - - -
1787969796 23.89° C 41% 1024.8 hPa 0 mm - - -
1787969494 23.89° C 39% 1024.7 hPa 0 mm - - -
1787969191 23.89° C 41% 1024.9 hPa 0 mm - - -
1787968890 23.89° C 43% 1025 hPa 0 mm - - -
1787968586 23.89° C 41% 1025.1 hPa 0 mm - - -
1787968284 23.89° C 44% 1025.2 hPa 0 mm - - -
1787967680 23.89° C 42% 1025.3 hPa 0 mm - - -
1787967378 23.89° C 45% 1025.6 hPa 0 mm - - -
1787967077 23.33° C 46% 1025.7 hPa 0 mm - - -
1787966843 23.33° C 48% 1025.9 hPa 0 mm - - -
1787966541 23.33° C 48% 1026 hPa 0 mm - - -
1787966348 23.33° C 48% 1026 hPa 0 mm - - -
1787966086 23.33° C 49% 1026.1 hPa 0 mm - - -
1787965784 23.33° C 48% 1026.2 hPa 0 mm - - -
1787965481 23.33° C 48% 1026.2 hPa 0 mm - - -
1787965179 22.78° C 49% 1026.3 hPa 0 mm - - -
1787964887 22.78° C 51% 1026.5 hPa 0 mm - - -
1787964577 22.78° C 53% 1026.6 hPa 0 mm - - -
1787964273 22.22° C 52% 1026.6 hPa 0 mm - - -
1787963971 22.22° C 54% 1026.8 hPa 0 mm - - -

* Rain since midnight (hover to see other rain measurements)
** Current wind speed in m/s (hover to see current wind gust speed)